createdAt,value
2022-12-11T00:14:06.817Z,0.63
2022-12-11T00:29:14.876Z,1.23
2022-12-11T00:44:16.628Z,0.47
2022-12-11T00:59:18.458Z,0.67
2022-12-11T01:14:20.274Z,1.57
2022-12-11T01:29:22.653Z,0.90
2022-12-11T01:44:24.381Z,1.43
2022-12-11T01:59:28.794Z,1.90
2022-12-11T02:15:01.482Z,0.50
2022-12-11T02:30:16.326Z,1.97
2022-12-11T02:45:19.828Z,1.43
2022-12-11T03:00:22.050Z,1.90
2022-12-11T03:15:34.158Z,1.47
2022-12-11T03:30:37.670Z,2.03
2022-12-11T03:45:41.414Z,3.17
2022-12-11T04:00:43.636Z,2.00
2022-12-11T04:15:45.477Z,2.13
2022-12-11T04:30:50.904Z,6.03
2022-12-11T04:46:01.691Z,5.63
2022-12-11T05:01:11.300Z,7.53
2022-12-11T05:16:15.752Z,8.80
2022-12-11T05:31:20.808Z,7.97
2022-12-11T05:46:29.230Z,10.17
2022-12-11T06:01:35.948Z,12.77
2022-12-11T06:16:38.506Z,11.30
2022-12-11T06:31:40.947Z,13.10
2022-12-11T06:46:42.921Z,14.87
2022-12-11T07:01:45.566Z,13.97
2022-12-11T07:16:47.403Z,14.23
2022-12-11T07:31:49.615Z,13.80
2022-12-11T07:46:51.510Z,14.13
2022-12-11T08:01:53.381Z,13.83
2022-12-11T08:16:55.904Z,12.90
2022-12-11T08:31:58.213Z,12.80
2022-12-11T08:47:00.097Z,11.43
2022-12-11T09:02:01.886Z,12.20
2022-12-11T09:17:08.145Z,10.80
2022-12-11T09:32:10.265Z,9.97
2022-12-11T09:47:23.462Z,9.80
2022-12-11T10:02:47.265Z,11.30
2022-12-11T10:17:49.992Z,11.03
2022-12-11T10:33:11.969Z,11.50
2022-12-11T10:48:13.789Z,9.73
2022-12-11T11:03:26.864Z,10.87
2022-12-11T11:18:30.699Z,10.57
2022-12-11T11:33:35.770Z,9.93
2022-12-11T11:49:00.501Z,10.43
2022-12-11T12:04:04.071Z,10.10
2022-12-11T12:19:39.952Z,9.90
2022-12-11T12:34:57.219Z,9.63
2022-12-11T12:50:01.385Z,10.50
2022-12-11T13:05:18.564Z,9.17
2022-12-11T13:20:29.065Z,8.20
2022-12-11T13:35:33.477Z,8.43
2022-12-11T13:50:36.307Z,8.27
2022-12-11T14:05:38.273Z,10.13
2022-12-11T14:20:40.132Z,8.47
2022-12-11T14:35:44.096Z,8.60
2022-12-11T14:50:54.119Z,8.30
2022-12-11T15:05:58.596Z,9.10
2022-12-11T15:21:03.604Z,8.43
2022-12-11T15:36:22.437Z,7.10
2022-12-11T15:51:25.419Z,9.83
2022-12-11T16:06:27.260Z,7.97
2022-12-11T16:21:29.080Z,8.57
2022-12-11T16:36:31.495Z,8.37
2022-12-11T16:51:33.332Z,8.13
2022-12-11T17:06:35.293Z,7.57
2022-12-11T17:21:37.189Z,7.60
2022-12-11T17:36:39.455Z,6.27
2022-12-11T17:51:41.260Z,6.70
2022-12-11T18:06:43.120Z,10.07
2022-12-11T18:21:45.876Z,7.67
2022-12-11T18:36:48.078Z,8.90
2022-12-11T18:51:50.078Z,8.47
2022-12-11T19:06:51.874Z,7.33
2022-12-11T19:21:53.696Z,10.03
2022-12-11T19:36:56.510Z,8.63
2022-12-11T19:51:58.443Z,11.23
2022-12-11T20:07:00.244Z,9.40
2022-12-11T20:22:02.188Z,10.33
2022-12-11T20:37:04.618Z,11.77
2022-12-11T20:52:06.802Z,10.93
2022-12-11T21:07:09.960Z,9.87
2022-12-11T21:22:11.773Z,11.03
2022-12-11T21:37:13.915Z,10.00
2022-12-11T21:52:15.735Z,8.33
2022-12-11T22:07:17.543Z,7.70
2022-12-11T22:22:19.794Z,8.17
2022-12-11T22:37:21.655Z,7.83
2022-12-11T22:52:23.457Z,8.87
2022-12-11T23:07:25.382Z,8.50
2022-12-11T23:22:27.204Z,9.13
2022-12-11T23:37:29.194Z,8.50
2022-12-11T23:52:30.995Z,8.77
